createdAt,value
2022-10-06T00:01:27.473Z,9.75
2022-10-06T00:03:54.406Z,10.90
2022-10-06T00:06:21.210Z,7.40
2022-10-06T00:08:48.326Z,7.47
2022-10-06T00:11:15.854Z,9.85
2022-10-06T00:13:43.054Z,7.53
2022-10-06T00:16:12.193Z,6.80
2022-10-06T00:18:39.594Z,6.32
2022-10-06T00:21:06.548Z,12.30
2022-10-06T00:23:33.628Z,5.53
2022-10-06T00:26:00.696Z,9.27
2022-10-06T00:28:28.103Z,10.52
2022-10-06T00:30:56.601Z,11.48
2022-10-06T00:33:24.451Z,8.75
2022-10-06T00:35:58.114Z,10.20
2022-10-06T00:38:26.181Z,11.43
2022-10-06T00:40:53.608Z,7.63
2022-10-06T00:43:48.257Z,8.20
2022-10-06T00:46:35.956Z,7.88
2022-10-06T00:49:21.789Z,6.57
2022-10-06T00:51:52.686Z,7.07
2022-10-06T00:54:20.177Z,10.95
2022-10-06T00:56:47.715Z,9.43
2022-10-06T00:59:16.635Z,7.68
2022-10-06T01:01:51.115Z,6.65
2022-10-06T01:04:18.698Z,8.77
2022-10-06T01:06:50.330Z,8.63
2022-10-06T01:09:17.832Z,9.52
2022-10-06T01:11:45.661Z,6.97
2022-10-06T01:14:12.932Z,5.78
2022-10-06T01:16:41.940Z,6.82
2022-10-06T01:19:17.810Z,10.43
2022-10-06T01:21:47.078Z,8.05
2022-10-06T01:24:14.697Z,6.65
2022-10-06T01:26:43.423Z,8.45
2022-10-06T01:29:10.735Z,4.63
2022-10-06T01:31:37.764Z,4.88
2022-10-06T01:34:04.652Z,7.57
2022-10-06T01:36:31.641Z,5.35
2022-10-06T01:38:58.810Z,4.88
2022-10-06T01:41:27.448Z,6.00
2022-10-06T01:43:54.613Z,4.45
2022-10-06T01:46:21.666Z,6.13
2022-10-06T01:48:48.695Z,5.53
2022-10-06T01:51:16.777Z,6.55
2022-10-06T01:53:44.235Z,7.25
2022-10-06T01:56:14.273Z,5.50
2022-10-06T01:58:41.035Z,6.38
2022-10-06T02:01:09.680Z,5.43
2022-10-06T02:03:38.016Z,8.95
2022-10-06T02:06:05.619Z,4.72
2022-10-06T02:08:33.483Z,7.43
2022-10-06T02:11:06.462Z,5.38
2022-10-06T02:13:34.596Z,7.15
2022-10-06T02:16:01.760Z,5.22
2022-10-06T02:18:28.860Z,7.55
2022-10-06T02:20:56.058Z,3.10
2022-10-06T02:23:23.490Z,3.55
2022-10-06T02:25:50.286Z,4.50
2022-10-06T02:28:17.352Z,3.55
2022-10-06T02:30:44.485Z,4.35
2022-10-06T02:33:11.189Z,6.80
2022-10-06T02:35:38.066Z,3.88
2022-10-06T02:38:04.933Z,4.15
2022-10-06T02:40:31.814Z,3.42
2022-10-06T02:42:59.031Z,5.38
2022-10-06T02:45:25.801Z,8.35
2022-10-06T02:47:54.857Z,4.85
2022-10-06T02:50:21.634Z,3.08
2022-10-06T02:52:48.370Z,5.53
2022-10-06T02:55:15.696Z,5.50
2022-10-06T02:57:42.320Z,8.13
2022-10-06T03:00:10.998Z,5.60
2022-10-06T03:02:38.107Z,3.88
2022-10-06T03:05:05.298Z,3.92
2022-10-06T03:07:32.107Z,4.57
2022-10-06T03:09:58.787Z,3.42
2022-10-06T03:12:25.916Z,4.38
2022-10-06T03:14:52.892Z,4.43
2022-10-06T03:17:19.722Z,5.85
2022-10-06T03:19:46.445Z,2.95
2022-10-06T03:22:13.353Z,1.38
2022-10-06T03:24:40.322Z,1.10
2022-10-06T03:27:07.254Z,7.60
2022-10-06T03:29:35.385Z,3.00
2022-10-06T03:32:02.402Z,2.67
2022-10-06T03:34:29.255Z,1.70
2022-10-06T03:36:56.254Z,2.60
2022-10-06T03:39:23.217Z,0.85
2022-10-06T03:41:50.133Z,3.72
2022-10-06T03:44:17.072Z,2.17
2022-10-06T03:46:43.826Z,0.63
2022-10-06T03:49:10.922Z,1.15
2022-10-06T03:51:40.262Z,1.75
2022-10-06T03:54:11.198Z,2.45
2022-10-06T03:56:41.405Z,0.47
2022-10-06T03:59:11.164Z,1.38
2022-10-06T04:01:46.189Z,7.38
2022-10-06T04:04:13.870Z,0.30
2022-10-06T04:06:43.312Z,1.08
2022-10-06T04:09:15.245Z,1.25
2022-10-06T04:11:43.546Z,1.25
2022-10-06T04:14:13.470Z,4.15
2022-10-06T04:16:50.573Z,1.10
2022-10-06T04:19:18.332Z,4.65
2022-10-06T04:21:47.093Z,5.38
2022-10-06T04:24:14.190Z,3.75
2022-10-06T04:26:45.268Z,3.00
2022-10-06T04:29:12.280Z,3.88
2022-10-06T04:31:41.240Z,2.20
2022-10-06T04:34:08.546Z,2.70
2022-10-06T04:36:39.875Z,2.58
2022-10-06T04:39:10.550Z,2.90
2022-10-06T04:41:39.826Z,2.85
2022-10-06T04:44:07.460Z,4.90
2022-10-06T04:46:43.613Z,2.97
2022-10-06T04:49:17.568Z,3.75
2022-10-06T04:51:46.569Z,5.10
2022-10-06T04:54:13.486Z,2.25
2022-10-06T04:56:40.831Z,4.13
2022-10-06T04:59:07.718Z,2.40
2022-10-06T05:01:36.632Z,5.25
2022-10-06T05:04:05.004Z,5.65
2022-10-06T05:06:37.268Z,6.30
2022-10-06T05:09:10.299Z,6.07
2022-10-06T05:11:38.341Z,7.07
2022-10-06T05:14:05.502Z,5.82
2022-10-06T05:16:32.695Z,6.57
2022-10-06T05:19:00.593Z,5.70
2022-10-06T05:21:30.230Z,3.95
2022-10-06T05:23:57.525Z,2.72
2022-10-06T05:26:28.033Z,3.35
2022-10-06T05:28:55.651Z,2.88
2022-10-06T05:31:33.732Z,2.63
2022-10-06T05:34:00.783Z,6.60
2022-10-06T05:36:29.976Z,4.40
2022-10-06T05:38:57.623Z,6.75
2022-10-06T05:41:29.107Z,5.47
2022-10-06T05:43:56.194Z,4.78
2022-10-06T05:46:25.583Z,4.75
2022-10-06T05:48:57.018Z,5.97
2022-10-06T05:51:30.353Z,4.32
2022-10-06T05:53:59.088Z,4.32
2022-10-06T05:56:36.888Z,9.30
2022-10-06T05:59:04.617Z,9.82
2022-10-06T06:01:34.993Z,10.88
2022-10-06T06:04:04.129Z,7.03
2022-10-06T06:06:39.071Z,5.40
2022-10-06T06:09:11.018Z,5.38
2022-10-06T06:11:43.634Z,6.00
2022-10-06T06:14:13.036Z,5.80
2022-10-06T06:16:41.051Z,4.97
2022-10-06T06:19:09.745Z,6.32
2022-10-06T06:21:36.854Z,3.45
2022-10-06T06:24:04.839Z,3.75
2022-10-06T06:26:34.247Z,5.78
2022-10-06T06:29:05.545Z,4.63
2022-10-06T06:31:40.086Z,8.93
2022-10-06T06:34:07.526Z,3.47
2022-10-06T06:36:37.149Z,3.10
2022-10-06T06:39:11.567Z,3.20
2022-10-06T06:41:43.183Z,2.45
2022-10-06T06:44:11.883Z,3.92
2022-10-06T06:46:39.489Z,7.90
2022-10-06T06:49:06.835Z,5.00
2022-10-06T06:51:35.691Z,5.53
2022-10-06T06:54:02.848Z,7.00
2022-10-06T06:56:35.492Z,4.90
2022-10-06T06:59:11.932Z,3.85
2022-10-06T07:01:46.045Z,3.40
2022-10-06T07:04:15.478Z,5.18
2022-10-06T07:06:46.770Z,4.03
2022-10-06T07:09:14.412Z,6.60
2022-10-06T07:11:41.249Z,3.30
2022-10-06T07:14:12.855Z,7.38
2022-10-06T07:16:58.626Z,8.63
2022-10-06T07:19:41.058Z,5.35
2022-10-06T07:22:46.751Z,3.05
2022-10-06T07:25:25.896Z,5.55
2022-10-06T07:27:53.976Z,9.77
2022-10-06T07:30:26.689Z,4.15
2022-10-06T07:32:53.879Z,3.83
2022-10-06T07:35:21.792Z,3.22
2022-10-06T07:37:49.887Z,3.85
2022-10-06T07:40:17.603Z,4.07
2022-10-06T07:42:52.200Z,5.70
2022-10-06T07:45:41.958Z,3.97
2022-10-06T07:48:14.787Z,6.07
2022-10-06T07:50:43.354Z,5.18
2022-10-06T07:53:10.223Z,3.38
2022-10-06T07:55:41.472Z,3.40
2022-10-06T07:58:18.783Z,6.55
2022-10-06T08:00:46.643Z,5.43
2022-10-06T08:03:18.343Z,9.00
2022-10-06T08:05:46.894Z,4.93
2022-10-06T08:08:15.059Z,6.07
2022-10-06T08:10:42.825Z,7.82
2022-10-06T08:13:10.759Z,10.05
2022-10-06T08:15:37.790Z,6.38
2022-10-06T08:18:16.429Z,7.70
2022-10-06T08:20:51.544Z,4.32
2022-10-06T08:23:18.318Z,6.55
2022-10-06T08:25:53.946Z,3.85
2022-10-06T08:28:22.536Z,6.45
2022-10-06T08:30:51.668Z,6.75
2022-10-06T08:33:21.251Z,4.65
2022-10-06T08:35:48.426Z,5.43
2022-10-06T08:38:15.436Z,6.68
2022-10-06T08:40:44.259Z,5.50
2022-10-06T08:43:16.724Z,4.65
2022-10-06T08:45:45.227Z,6.82
2022-10-06T08:48:19.341Z,6.22
2022-10-06T08:51:05.375Z,4.80
2022-10-06T08:53:39.621Z,5.18
2022-10-06T08:58:50.723Z,6.15
2022-10-06T09:01:20.532Z,2.92
2022-10-06T09:03:49.307Z,6.97
2022-10-06T09:06:42.280Z,6.13
2022-10-06T09:09:35.512Z,4.25
2022-10-06T09:12:33.484Z,1.77
2022-10-06T09:15:15.981Z,6.85
2022-10-06T09:17:50.267Z,6.22
2022-10-06T09:22:49.410Z,3.70
2022-10-06T09:25:20.425Z,8.02
2022-10-06T09:27:53.256Z,4.05
2022-10-06T09:30:20.625Z,4.95
2022-10-06T09:33:00.487Z,3.88
2022-10-06T09:35:31.924Z,4.78
2022-10-06T09:38:08.639Z,5.45
2022-10-06T09:40:49.481Z,3.42
2022-10-06T09:43:36.562Z,5.88
2022-10-06T09:46:29.432Z,4.70
2022-10-06T09:49:24.927Z,4.60
2022-10-06T09:52:24.019Z,4.25
2022-10-06T09:55:13.614Z,3.30
2022-10-06T09:57:49.512Z,5.78
2022-10-06T10:00:33.268Z,4.60
2022-10-06T10:03:05.169Z,5.03
2022-10-06T10:05:34.543Z,5.03
2022-10-06T10:08:09.338Z,6.25
2022-10-06T10:10:38.415Z,4.00
2022-10-06T10:13:24.756Z,6.93
2022-10-06T10:15:58.099Z,2.35
2022-10-06T10:18:30.714Z,3.57
2022-10-06T10:21:06.441Z,2.95
2022-10-06T10:23:39.548Z,4.25
2022-10-06T10:26:17.747Z,3.72
2022-10-06T10:29:44.053Z,3.78
2022-10-06T10:32:17.690Z,4.40
2022-10-06T10:35:02.947Z,5.70
2022-10-06T10:37:54.407Z,5.35
2022-10-06T10:40:56.205Z,3.90
2022-10-06T10:43:34.611Z,6.47
2022-10-06T10:46:06.437Z,2.85
2022-10-06T10:49:17.293Z,4.47
2022-10-06T10:52:02.337Z,4.15
2022-10-06T10:54:37.241Z,3.83
2022-10-06T10:57:04.269Z,4.55
2022-10-06T10:59:44.317Z,7.10
2022-10-06T11:02:15.991Z,5.07
2022-10-06T11:04:47.382Z,4.05
2022-10-06T11:07:29.741Z,4.70
2022-10-06T11:10:24.373Z,7.53
2022-10-06T11:13:19.416Z,4.68
2022-10-06T11:16:28.688Z,7.40
2022-10-06T11:19:17.529Z,3.72
2022-10-06T11:21:59.165Z,2.47
2022-10-06T11:24:49.822Z,5.38
2022-10-06T11:27:34.526Z,3.05
2022-10-06T11:32:56.237Z,7.47
2022-10-06T11:35:27.171Z,6.38
2022-10-06T11:38:00.555Z,6.28
2022-10-06T11:41:09.856Z,3.40
2022-10-06T11:44:00.611Z,5.78
2022-10-06T11:46:44.827Z,8.98
2022-10-06T11:49:56.231Z,4.65
2022-10-06T11:52:43.438Z,5.22
2022-10-06T11:55:18.047Z,2.97
2022-10-06T12:01:02.565Z,3.42
2022-10-06T12:03:46.246Z,4.20
2022-10-06T12:06:40.724Z,6.97
2022-10-06T12:09:31.182Z,4.80
2022-10-06T12:12:03.034Z,5.03
2022-10-06T12:18:53.388Z,7.35
2022-10-06T12:21:26.266Z,5.40
2022-10-06T12:24:20.264Z,3.45
2022-10-06T12:26:55.952Z,4.97
2022-10-06T12:29:36.885Z,3.28
2022-10-06T12:32:58.484Z,4.35
2022-10-06T12:35:29.936Z,5.55
2022-10-06T12:38:00.717Z,5.30
2022-10-06T12:40:45.159Z,3.88
2022-10-06T12:43:32.778Z,5.68
2022-10-06T12:46:20.230Z,2.95
2022-10-06T12:49:04.548Z,4.65
2022-10-06T12:51:39.091Z,4.93
2022-10-06T12:54:15.500Z,4.85
2022-10-06T12:56:44.139Z,4.68
2022-10-06T12:59:42.930Z,5.38
2022-10-06T13:02:27.690Z,6.28
2022-10-06T13:04:58.074Z,5.15
2022-10-06T13:07:34.008Z,9.15
2022-10-06T13:10:21.649Z,4.65
2022-10-06T13:12:50.626Z,3.17
2022-10-06T13:15:29.343Z,3.97
2022-10-06T13:17:57.859Z,4.38
2022-10-06T13:20:49.540Z,4.30
2022-10-06T13:23:30.914Z,6.07
2022-10-06T13:26:03.159Z,6.20
2022-10-06T13:28:57.095Z,2.63
2022-10-06T13:31:28.707Z,5.90
2022-10-06T13:34:14.280Z,6.57
2022-10-06T13:36:43.424Z,5.05
2022-10-06T13:39:21.811Z,7.88
2022-10-06T13:42:04.607Z,6.72
2022-10-06T13:44:40.379Z,5.82
2022-10-06T13:47:22.775Z,4.78
2022-10-06T13:49:53.361Z,5.82
2022-10-06T13:52:23.568Z,3.70
2022-10-06T13:54:55.792Z,4.45
2022-10-06T13:57:39.734Z,6.45
2022-10-06T14:00:33.763Z,10.55
2022-10-06T14:03:10.843Z,2.93
2022-10-06T14:05:46.005Z,5.93
2022-10-06T14:08:25.010Z,5.15
2022-10-06T14:10:57.282Z,6.85
2022-10-06T14:13:32.729Z,3.95
2022-10-06T14:16:08.913Z,6.10
2022-10-06T14:18:47.268Z,4.88
2022-10-06T14:21:33.707Z,6.57
2022-10-06T14:24:06.055Z,4.07
2022-10-06T14:26:36.434Z,3.85
2022-10-06T14:29:03.754Z,5.07
2022-10-06T14:31:34.202Z,4.25
2022-10-06T14:34:02.100Z,5.05
2022-10-06T14:36:32.081Z,4.97
2022-10-06T14:39:00.548Z,8.80
2022-10-06T14:41:29.234Z,4.50
2022-10-06T14:44:08.908Z,4.88
2022-10-06T14:46:36.697Z,8.02
2022-10-06T14:49:08.026Z,3.63
2022-10-06T14:51:37.194Z,4.20
2022-10-06T14:54:05.417Z,6.25
2022-10-06T14:56:34.501Z,3.72
2022-10-06T14:59:05.775Z,5.40
2022-10-06T15:01:34.451Z,4.38
2022-10-06T15:04:06.367Z,3.88
2022-10-06T15:06:51.961Z,6.88
2022-10-06T15:09:19.131Z,4.97
2022-10-06T15:11:46.110Z,4.72
2022-10-06T15:14:13.199Z,4.97
2022-10-06T15:16:42.525Z,4.57
2022-10-06T15:19:12.183Z,5.00
2022-10-06T15:21:40.764Z,8.48
2022-10-06T15:24:10.221Z,7.85
2022-10-06T15:26:56.265Z,17.73
2022-10-06T15:29:23.213Z,3.90
2022-10-06T15:31:52.865Z,13.23
2022-10-06T15:34:26.404Z,4.82
2022-10-06T15:36:54.755Z,3.57
2022-10-06T15:39:24.404Z,8.35
2022-10-06T15:41:51.721Z,15.55
2022-10-06T15:44:19.853Z,11.90
2022-10-06T15:46:52.056Z,12.23
2022-10-06T15:49:24.031Z,7.25
2022-10-06T15:51:56.921Z,6.00
2022-10-06T15:54:52.276Z,4.18
2022-10-06T15:57:21.153Z,8.02
2022-10-06T15:59:48.684Z,7.18
2022-10-06T16:02:17.833Z,16.17
2022-10-06T16:04:57.223Z,38.20
2022-10-06T16:07:24.176Z,17.17
2022-10-06T16:09:52.181Z,35.95
2022-10-06T16:12:23.447Z,18.25
2022-10-06T16:14:50.703Z,16.17
2022-10-06T16:17:17.842Z,16.45
2022-10-06T16:19:45.072Z,11.25
2022-10-06T16:22:14.232Z,10.05
2022-10-06T16:24:41.429Z,12.30
2022-10-06T16:27:11.616Z,8.02
2022-10-06T16:29:38.760Z,6.07
2022-10-06T16:32:05.711Z,5.72
2022-10-06T16:34:33.517Z,8.15
2022-10-06T16:37:00.441Z,10.10
2022-10-06T16:39:27.340Z,12.23
2022-10-06T16:41:55.374Z,7.40
2022-10-06T16:44:22.621Z,14.35
2022-10-06T16:46:49.477Z,8.38
2022-10-06T16:49:16.465Z,10.07
2022-10-06T16:51:45.948Z,10.95
2022-10-06T16:54:14.804Z,9.02
2022-10-06T16:56:44.601Z,12.27
2022-10-06T16:59:13.806Z,7.75
2022-10-06T17:01:41.058Z,10.55
2022-10-06T17:04:16.622Z,14.73
2022-10-06T17:06:48.743Z,9.35
2022-10-06T17:09:19.832Z,8.57
2022-10-06T17:11:49.088Z,8.85
2022-10-06T17:14:16.730Z,8.30
2022-10-06T17:16:45.365Z,9.75
2022-10-06T17:19:14.420Z,19.65
2022-10-06T17:21:46.846Z,25.83
2022-10-06T17:24:14.834Z,26.33
2022-10-06T17:26:43.819Z,36.38
2022-10-06T17:29:17.821Z,28.10
2022-10-06T17:31:45.247Z,17.40
2022-10-06T17:34:20.713Z,22.98
2022-10-06T17:36:51.338Z,14.15
2022-10-06T17:39:21.497Z,7.00
2022-10-06T17:41:50.567Z,6.85
2022-10-06T17:44:23.493Z,14.93
2022-10-06T17:46:53.472Z,34.25
2022-10-06T17:49:21.988Z,64.25
2022-10-06T17:51:49.846Z,114.80
2022-10-06T17:54:20.195Z,83.18
2022-10-06T17:56:49.121Z,49.00
2022-10-06T17:59:28.699Z,21.02
2022-10-06T18:01:57.522Z,43.45
2022-10-06T18:04:25.232Z,95.60
2022-10-06T18:06:54.164Z,20.55
2022-10-06T18:09:21.963Z,10.55
2022-10-06T18:11:54.803Z,8.05
2022-10-06T18:14:27.456Z,22.00
2022-10-06T18:16:59.092Z,23.45
2022-10-06T18:19:30.436Z,9.00
2022-10-06T18:22:10.709Z,20.38
2022-10-06T18:24:38.545Z,61.03
2022-10-06T18:27:06.732Z,43.33
2022-10-06T18:29:35.586Z,28.75
2022-10-06T18:37:37.562Z,17.42
2022-10-06T18:40:07.155Z,20.48
2022-10-06T18:42:35.107Z,17.05
2022-10-06T18:45:20.995Z,12.85
2022-10-06T18:48:06.536Z,13.65
2022-10-06T18:50:33.826Z,14.60
2022-10-06T18:53:01.925Z,19.00
2022-10-06T18:55:30.034Z,17.80
2022-10-06T18:57:57.137Z,17.45
2022-10-06T19:00:26.155Z,11.90
2022-10-06T19:02:55.675Z,15.18
2022-10-06T19:05:23.965Z,12.45
2022-10-06T19:07:53.823Z,16.27
2022-10-06T19:10:21.011Z,18.20
2022-10-06T19:12:48.743Z,18.15
2022-10-06T19:15:20.438Z,13.57
2022-10-06T19:17:49.376Z,12.90
2022-10-06T19:20:16.918Z,12.15
2022-10-06T19:22:43.945Z,16.92
2022-10-06T19:25:11.712Z,12.43
2022-10-06T19:27:38.839Z,15.40
2022-10-06T19:30:06.260Z,11.05
2022-10-06T19:32:33.296Z,11.10
2022-10-06T19:35:00.589Z,8.98
2022-10-06T19:37:29.119Z,11.90
2022-10-06T19:39:55.967Z,13.80
2022-10-06T19:42:41.273Z,7.70
2022-10-06T19:45:10.174Z,9.20
2022-10-06T19:47:37.238Z,10.77
2022-10-06T19:50:10.419Z,17.13
2022-10-06T19:52:38.272Z,8.25
2022-10-06T19:55:05.693Z,11.43
2022-10-06T19:57:34.098Z,10.23
2022-10-06T20:00:01.176Z,8.27
2022-10-06T20:02:29.227Z,7.50
2022-10-06T20:04:56.713Z,12.50
2022-10-06T20:07:27.842Z,10.52
2022-10-06T20:09:56.107Z,9.35
2022-10-06T20:12:25.171Z,8.13
2022-10-06T20:14:56.326Z,9.02
2022-10-06T20:17:23.634Z,7.28
2022-10-06T20:19:56.675Z,8.70
2022-10-06T20:22:25.684Z,7.53
2022-10-06T20:24:53.298Z,5.80
2022-10-06T20:27:20.465Z,10.73
2022-10-06T20:29:47.586Z,9.23
2022-10-06T20:32:14.744Z,7.43
2022-10-06T20:34:41.676Z,10.55
2022-10-06T20:37:09.014Z,11.48
2022-10-06T20:39:54.417Z,9.77
2022-10-06T20:42:21.894Z,9.48
2022-10-06T20:44:49.246Z,8.20
2022-10-06T20:47:17.332Z,10.02
2022-10-06T20:49:45.176Z,9.45
2022-10-06T20:52:15.195Z,11.85
2022-10-06T20:54:42.523Z,8.40
2022-10-06T20:57:09.869Z,11.20
2022-10-06T20:59:37.803Z,13.20
2022-10-06T21:02:06.031Z,8.98
2022-10-06T21:04:35.013Z,7.22
2022-10-06T21:07:04.457Z,8.73
2022-10-06T21:09:31.894Z,5.75
2022-10-06T21:11:58.887Z,8.40
2022-10-06T21:14:26.322Z,12.57
2022-10-06T21:16:53.502Z,8.27
2022-10-06T21:19:21.382Z,9.02
2022-10-06T21:21:53.618Z,10.93
2022-10-06T21:24:20.967Z,10.23
2022-10-06T21:26:48.467Z,7.28
2022-10-06T21:29:16.199Z,7.82
2022-10-06T21:31:44.656Z,8.70
2022-10-06T21:34:12.327Z,7.72
2022-10-06T21:36:39.846Z,7.20
2022-10-06T21:39:07.571Z,10.88
2022-10-06T21:41:39.433Z,7.10
2022-10-06T21:44:15.280Z,7.18
2022-10-06T21:46:46.454Z,8.13
2022-10-06T21:49:15.575Z,12.02
2022-10-06T21:51:46.018Z,6.20
2022-10-06T21:54:13.915Z,9.23
2022-10-06T21:56:41.359Z,7.05
2022-10-06T21:59:08.701Z,11.60
2022-10-06T22:01:37.819Z,9.55
2022-10-06T22:04:05.997Z,9.15
2022-10-06T22:06:35.347Z,6.03
2022-10-06T22:09:10.957Z,6.03
2022-10-06T22:11:39.398Z,8.40
2022-10-06T22:14:09.306Z,9.40
2022-10-06T22:16:36.926Z,6.80
2022-10-06T22:19:06.383Z,6.80
2022-10-06T22:21:44.292Z,8.88
2022-10-06T22:24:13.936Z,17.45
2022-10-06T22:26:42.570Z,13.00
2022-10-06T22:29:12.511Z,11.75
2022-10-06T22:31:41.805Z,10.18
2022-10-06T22:34:11.198Z,10.88
2022-10-06T22:36:39.249Z,8.52
2022-10-06T22:39:06.560Z,9.77
2022-10-06T22:41:33.449Z,12.85
2022-10-06T22:44:00.668Z,6.55
2022-10-06T22:46:30.085Z,9.40
2022-10-06T22:48:57.551Z,9.35
2022-10-06T22:51:25.086Z,9.57
2022-10-06T22:53:58.815Z,11.35
2022-10-06T22:56:28.392Z,9.93
2022-10-06T22:58:55.757Z,12.57
2022-10-06T23:01:23.078Z,8.63
2022-10-06T23:03:50.284Z,5.72
2022-10-06T23:06:18.429Z,4.18
2022-10-06T23:08:45.673Z,8.68
2022-10-06T23:11:15.033Z,6.57
2022-10-06T23:13:43.607Z,5.45
2022-10-06T23:16:12.802Z,8.50
2022-10-06T23:18:42.778Z,5.70
2022-10-06T23:21:19.449Z,10.18
2022-10-06T23:23:46.999Z,13.75
2022-10-06T23:26:15.928Z,9.02
2022-10-06T23:28:43.867Z,12.07
2022-10-06T23:31:14.452Z,8.65
2022-10-06T23:33:42.450Z,8.00
2022-10-06T23:36:12.037Z,12.77
2022-10-06T23:38:39.918Z,10.10
2022-10-06T23:41:07.381Z,8.38
2022-10-06T23:43:35.121Z,6.55
2022-10-06T23:46:02.876Z,8.43
2022-10-06T23:48:30.456Z,7.40
2022-10-06T23:51:05.650Z,10.27
2022-10-06T23:53:33.216Z,8.60
2022-10-06T23:56:00.603Z,10.30
2022-10-06T23:58:28.132Z,9.23
